createdAt,value
2019-02-03T00:00:24.096Z,96.61
2019-02-03T00:02:50.931Z,96.54
2019-02-03T00:05:17.790Z,96.85
2019-02-03T00:07:44.611Z,96.19
2019-02-03T00:10:11.451Z,96.31
2019-02-03T00:12:38.291Z,95.55
2019-02-03T00:15:05.854Z,95.67
2019-02-03T00:17:32.703Z,95.69
2019-02-03T00:19:59.570Z,95.28
2019-02-03T00:22:26.398Z,95.04
2019-02-03T00:24:53.246Z,95.03
2019-02-03T00:27:20.082Z,94.81
2019-02-03T00:29:47.014Z,95.62
2019-02-03T00:32:13.859Z,95.61
2019-02-03T00:34:40.722Z,95.01
2019-02-03T00:37:15.251Z,94.70
2019-02-03T00:39:34.467Z,94.81
2019-02-03T00:42:01.346Z,94.73
2019-02-03T00:44:28.161Z,94.35
2019-02-03T00:46:54.991Z,94.10
2019-02-03T00:49:21.837Z,94.36
2019-02-03T00:51:48.675Z,94.67
2019-02-03T00:54:15.525Z,94.84
2019-02-03T00:56:42.359Z,94.99
2019-02-03T00:59:09.219Z,94.74
2019-02-03T01:01:36.065Z,94.96
2019-02-03T01:04:02.916Z,94.87
2019-02-03T01:06:29.751Z,95.06
2019-02-03T01:08:56.599Z,95.31
2019-02-03T01:11:23.466Z,94.45
2019-02-03T01:13:50.290Z,94.93
2019-02-03T01:16:17.142Z,94.78
2019-02-03T01:18:43.991Z,94.90
2019-02-03T01:21:10.827Z,95.17
2019-02-03T01:23:37.662Z,94.40
2019-02-03T01:26:04.511Z,94.94
2019-02-03T01:28:31.342Z,95.34
2019-02-03T01:30:58.203Z,95.71
2019-02-03T01:33:25.030Z,95.80
2019-02-03T01:35:51.882Z,95.71
2019-02-03T01:38:18.720Z,95.98
2019-02-03T01:40:45.562Z,95.71
2019-02-03T01:43:12.383Z,96.21
2019-02-03T01:45:39.234Z,96.47
2019-02-03T01:48:06.074Z,96.66
2019-02-03T01:50:32.930Z,96.79
2019-02-03T01:52:59.758Z,97.06
2019-02-03T01:55:26.615Z,97.21
2019-02-03T01:57:53.454Z,96.67
2019-02-03T02:00:22.258Z,97.12
2019-02-03T02:02:49.081Z,97.33
2019-02-03T02:05:15.918Z,97.76
2019-02-03T02:07:51.138Z,97.67
2019-02-03T02:10:12.191Z,98.31
2019-02-03T02:12:39.010Z,98.18
2019-02-03T02:15:08.091Z,96.54
2019-02-03T02:17:34.950Z,96.54
2019-02-03T02:20:01.811Z,96.43
2019-02-03T02:22:28.642Z,96.64
2019-02-03T02:24:55.485Z,95.11
2019-02-03T02:27:22.314Z,95.44
2019-02-03T02:29:49.199Z,95.35
2019-02-03T02:32:16.030Z,95.15
2019-02-03T02:34:42.877Z,94.76
2019-02-03T02:37:09.721Z,94.31
2019-02-03T02:39:36.547Z,94.14
2019-02-03T02:42:03.398Z,94.66
2019-02-03T02:44:30.216Z,95.95
2019-02-03T02:46:57.063Z,96.32
2019-02-03T02:49:24.070Z,96.94
2019-02-03T02:51:50.926Z,97.46
2019-02-03T02:54:17.761Z,97.53
2019-02-03T02:56:44.595Z,97.04
2019-02-03T02:59:11.425Z,95.79
2019-02-03T03:01:38.278Z,95.25
2019-02-03T03:04:05.094Z,94.31
2019-02-03T03:06:31.954Z,94.49
2019-02-03T03:08:58.781Z,94.65
2019-02-03T03:11:25.631Z,95.29
2019-02-03T03:13:52.466Z,95.22
2019-02-03T03:16:19.317Z,95.64
2019-02-03T03:18:46.162Z,96.97
2019-02-03T03:21:13.187Z,98.26
2019-02-03T03:23:40.022Z,98.49
2019-02-03T03:26:06.870Z,98.95
2019-02-03T03:28:33.695Z,99.79
2019-02-03T03:31:00.564Z,100.00
2019-02-03T03:33:27.390Z,100.00
2019-02-03T03:35:54.243Z,100.00
2019-02-03T03:38:31.634Z,100.00
2019-02-03T03:40:47.922Z,100.00
2019-02-03T03:43:14.746Z,100.00
2019-02-03T03:45:41.593Z,100.00
2019-02-03T03:48:08.426Z,100.00
2019-02-03T03:50:35.285Z,100.00
2019-02-03T03:53:02.110Z,100.00
2019-02-03T03:55:28.951Z,100.00
2019-02-03T03:57:55.778Z,100.00
2019-02-03T04:00:24.001Z,100.00
2019-02-03T04:02:50.898Z,100.00
2019-02-03T04:05:17.721Z,100.00
2019-02-03T04:07:44.565Z,100.00
2019-02-03T04:10:12.070Z,100.00
2019-02-03T04:12:38.911Z,100.00
2019-02-03T04:15:07.123Z,100.00
2019-02-03T04:17:33.997Z,100.00
2019-02-03T04:20:00.795Z,100.00
2019-02-03T04:22:27.646Z,100.00
2019-02-03T04:24:54.470Z,100.00
2019-02-03T04:27:21.306Z,100.00
2019-02-03T04:29:48.126Z,100.00
2019-02-03T04:32:15.070Z,100.00
2019-02-03T04:34:41.897Z,100.00
2019-02-03T04:37:08.759Z,100.00
2019-02-03T04:39:35.627Z,100.00
2019-02-03T04:42:02.485Z,100.00
2019-02-03T04:44:29.317Z,100.00
2019-02-03T04:46:56.158Z,100.00
2019-02-03T04:49:22.990Z,100.00
2019-02-03T04:51:49.829Z,100.00
2019-02-03T04:54:16.660Z,100.00
2019-02-03T04:56:43.506Z,100.00
2019-02-03T04:59:10.335Z,100.00
2019-02-03T05:01:37.182Z,100.00
2019-02-03T05:04:04.069Z,100.00
2019-02-03T05:06:30.922Z,100.00
2019-02-03T05:09:10.398Z,100.00
2019-02-03T05:11:24.634Z,100.00
2019-02-03T05:13:51.471Z,100.00
2019-02-03T05:16:18.403Z,100.00
2019-02-03T05:18:45.237Z,100.00
2019-02-03T05:21:12.078Z,99.64
2019-02-03T05:23:38.926Z,99.66
2019-02-03T05:26:05.781Z,98.63
2019-02-03T05:28:32.636Z,98.65
2019-02-03T05:30:59.480Z,98.80
2019-02-03T05:33:26.322Z,98.41
2019-02-03T05:35:53.157Z,97.56
2019-02-03T05:38:20.019Z,97.17
2019-02-03T05:40:46.859Z,97.09
2019-02-03T05:43:13.737Z,96.59
2019-02-03T05:45:40.566Z,97.35
2019-02-03T05:48:07.410Z,96.35
2019-02-03T05:50:34.239Z,95.27
2019-02-03T05:53:01.100Z,94.93
2019-02-03T05:55:27.932Z,93.97
2019-02-03T05:57:54.773Z,94.42
2019-02-03T06:00:27.793Z,93.95
2019-02-03T06:02:54.639Z,92.97
2019-02-03T06:05:21.466Z,91.76
2019-02-03T06:07:48.312Z,92.30
2019-02-03T06:10:15.869Z,91.85
2019-02-03T06:12:42.714Z,92.23
2019-02-03T06:15:09.712Z,92.30
2019-02-03T06:17:36.866Z,92.25
2019-02-03T06:20:04.086Z,91.96
2019-02-03T06:22:30.946Z,91.57
2019-02-03T06:24:57.794Z,91.98
2019-02-03T06:27:24.670Z,90.48
2019-02-03T06:29:51.539Z,91.08
2019-02-03T06:32:18.391Z,91.23
2019-02-03T06:34:45.217Z,89.82
2019-02-03T06:37:12.040Z,91.26
2019-02-03T06:39:48.214Z,90.98
2019-02-03T06:42:05.743Z,91.56
2019-02-03T06:44:32.586Z,90.64
2019-02-03T06:47:22.577Z,90.49
2019-02-03T06:49:49.426Z,90.18
2019-02-03T06:52:16.252Z,90.29
2019-02-03T06:54:43.102Z,90.43
2019-02-03T06:57:09.933Z,91.14
2019-02-03T06:59:36.779Z,89.94
2019-02-03T07:02:03.622Z,89.62
2019-02-03T07:04:30.462Z,88.98
2019-02-03T07:06:57.289Z,89.39
2019-02-03T07:09:24.142Z,89.62
2019-02-03T07:11:50.979Z,88.89
2019-02-03T07:14:17.813Z,89.69
2019-02-03T07:16:44.646Z,89.99
2019-02-03T07:19:11.489Z,90.08
2019-02-03T07:21:38.312Z,89.80
2019-02-03T07:24:05.167Z,88.33
2019-02-03T07:26:32.025Z,87.88
2019-02-03T07:28:58.874Z,88.45
2019-02-03T07:31:25.706Z,88.79
2019-02-03T07:33:52.563Z,89.14
2019-02-03T07:36:19.394Z,88.82
2019-02-03T07:38:46.235Z,87.80
2019-02-03T07:41:13.071Z,87.80
2019-02-03T07:43:39.918Z,88.58
2019-02-03T07:46:06.742Z,88.74
2019-02-03T07:48:33.570Z,87.81
2019-02-03T07:51:00.422Z,87.43
2019-02-03T07:53:27.256Z,86.69
2019-02-03T07:55:54.182Z,86.60
2019-02-03T07:58:20.996Z,86.11
2019-02-03T08:00:47.845Z,85.82
2019-02-03T08:03:14.670Z,86.36
2019-02-03T08:05:41.532Z,86.54
2019-02-03T08:08:08.359Z,86.64
2019-02-03T08:10:36.351Z,87.33
2019-02-03T08:13:03.221Z,87.15
2019-02-03T08:15:30.090Z,86.95
2019-02-03T08:17:56.985Z,86.68
2019-02-03T08:20:24.010Z,86.81
2019-02-03T08:22:50.836Z,87.35
2019-02-03T08:25:17.684Z,86.56
2019-02-03T08:27:44.534Z,86.35
2019-02-03T08:30:14.244Z,86.61
2019-02-03T08:32:41.074Z,85.85
2019-02-03T08:35:07.926Z,86.02
2019-02-03T08:37:34.798Z,85.93
2019-02-03T08:40:01.673Z,86.17
2019-02-03T08:42:28.499Z,86.29
2019-02-03T08:44:55.350Z,84.86
2019-02-03T08:47:22.197Z,84.93
2019-02-03T08:49:49.122Z,86.22
2019-02-03T08:52:16.011Z,85.40
2019-02-03T08:54:56.795Z,85.00
2019-02-03T08:57:09.803Z,83.98
2019-02-03T08:59:36.638Z,84.00
2019-02-03T09:02:03.584Z,84.38
2019-02-03T09:04:30.402Z,83.53
2019-02-03T09:06:57.848Z,83.30
2019-02-03T09:09:24.086Z,83.76
2019-02-03T09:11:50.934Z,83.60
2019-02-03T09:14:17.905Z,82.34
2019-02-03T09:16:44.766Z,82.15
2019-02-03T09:19:11.670Z,82.54
2019-02-03T09:21:38.596Z,81.80
2019-02-03T09:24:05.420Z,80.54
2019-02-03T09:26:32.382Z,81.10
2019-02-03T09:28:59.241Z,81.06
2019-02-03T09:31:26.086Z,80.57
2019-02-03T09:33:52.918Z,80.88
2019-02-03T09:36:19.770Z,79.83
2019-02-03T09:38:46.594Z,79.89
2019-02-03T09:41:13.522Z,79.04
2019-02-03T09:43:40.362Z,80.28
2019-02-03T09:46:07.217Z,79.62
2019-02-03T09:48:34.148Z,79.83
2019-02-03T09:51:01.025Z,79.51
2019-02-03T09:53:27.862Z,79.91
2019-02-03T09:55:54.907Z,79.76
2019-02-03T09:58:21.743Z,80.55
2019-02-03T10:00:48.621Z,77.40
2019-02-03T10:03:15.502Z,79.47
2019-02-03T10:05:42.347Z,78.43
2019-02-03T10:08:09.189Z,77.85
2019-02-03T10:10:37.287Z,78.73
2019-02-03T10:13:04.661Z,77.83
2019-02-03T10:15:31.610Z,78.79
2019-02-03T10:17:58.450Z,77.81
2019-02-03T10:20:25.362Z,75.16
2019-02-03T10:22:52.135Z,77.26
2019-02-03T10:25:20.198Z,78.16
2019-02-03T10:27:47.199Z,77.81
2019-02-03T10:30:14.204Z,78.72
2019-02-03T10:32:41.128Z,76.22
2019-02-03T10:35:23.124Z,77.28
2019-02-03T10:37:39.369Z,76.14
2019-02-03T10:40:09.240Z,76.42
2019-02-03T10:42:36.158Z,73.92
2019-02-03T10:45:03.037Z,75.59
2019-02-03T10:47:29.885Z,75.26
2019-02-03T10:49:56.779Z,76.14
2019-02-03T10:52:23.633Z,76.77
2019-02-03T10:54:50.675Z,76.66
2019-02-03T10:57:17.530Z,75.43
2019-02-03T10:59:44.399Z,75.27
2019-02-03T11:02:11.251Z,76.58
2019-02-03T11:04:38.220Z,74.93
2019-02-03T11:07:04.949Z,76.46
2019-02-03T11:09:31.790Z,76.75
2019-02-03T11:11:58.649Z,76.52
2019-02-03T11:14:25.486Z,76.57
2019-02-03T11:16:52.375Z,76.54
2019-02-03T11:19:19.218Z,76.40
2019-02-03T11:21:46.085Z,76.52
2019-02-03T11:24:12.915Z,76.44
2019-02-03T11:26:39.819Z,73.79
2019-02-03T11:29:06.658Z,76.79
2019-02-03T11:31:33.514Z,76.48
2019-02-03T11:34:00.383Z,77.00
2019-02-03T11:36:27.291Z,76.74
2019-02-03T11:38:54.151Z,76.04
2019-02-03T11:41:20.978Z,75.26
2019-02-03T11:43:47.851Z,76.26
2019-02-03T11:46:14.766Z,77.14
2019-02-03T11:48:41.621Z,77.98
2019-02-03T11:51:08.477Z,76.27
2019-02-03T11:53:35.327Z,75.77
2019-02-03T11:56:02.182Z,78.88
2019-02-03T11:58:29.038Z,76.46
2019-02-03T12:00:56.774Z,77.52
2019-02-03T12:03:23.629Z,77.73
2019-02-03T12:05:50.485Z,78.94
2019-02-03T12:08:17.391Z,77.30
2019-02-03T12:10:44.243Z,77.46
2019-02-03T12:13:11.107Z,77.01
2019-02-03T12:15:37.998Z,75.84
2019-02-03T12:18:05.086Z,76.61
2019-02-03T12:20:31.934Z,77.90
2019-02-03T12:22:58.796Z,76.39
2019-02-03T12:25:27.460Z,79.25
2019-02-03T12:27:54.314Z,78.75
2019-02-03T12:30:24.422Z,79.78
2019-02-03T12:32:51.286Z,78.45
2019-02-03T12:35:19.669Z,80.13
2019-02-03T12:37:44.997Z,80.58
2019-02-03T12:40:14.450Z,78.61
2019-02-03T12:42:41.294Z,79.09
2019-02-03T12:45:09.166Z,78.70
2019-02-03T12:47:36.054Z,78.46
2019-02-03T12:50:03.382Z,80.62
2019-02-03T12:52:30.574Z,79.29
2019-02-03T12:54:57.466Z,78.24
2019-02-03T12:57:24.363Z,79.73
2019-02-03T12:59:51.238Z,78.91
2019-02-03T13:02:18.070Z,79.16
2019-02-03T13:04:44.936Z,79.10
2019-02-03T13:07:11.795Z,78.58
2019-02-03T13:09:38.663Z,77.83
2019-02-03T13:12:05.514Z,79.61
2019-02-03T13:14:32.379Z,78.85
2019-02-03T13:16:59.221Z,78.07
2019-02-03T13:19:26.086Z,79.74
2019-02-03T13:21:52.922Z,77.54
2019-02-03T13:24:19.783Z,79.45
2019-02-03T13:26:46.643Z,78.28
2019-02-03T13:29:13.504Z,77.10
2019-02-03T13:31:40.347Z,78.76
2019-02-03T13:34:07.247Z,79.55
2019-02-03T13:36:34.098Z,78.01
2019-02-03T13:39:00.954Z,75.55
2019-02-03T13:41:27.807Z,77.14
2019-02-03T13:43:54.667Z,75.34
2019-02-03T13:46:21.518Z,79.11
2019-02-03T13:48:48.470Z,76.91
2019-02-03T13:51:15.340Z,75.43
2019-02-03T13:53:42.182Z,78.57
2019-02-03T13:56:09.010Z,79.19
2019-02-03T13:58:37.517Z,78.58
2019-02-03T14:01:03.582Z,77.35
2019-02-03T14:03:30.446Z,79.08
2019-02-03T14:05:57.298Z,78.11
2019-02-03T14:08:24.130Z,79.51
2019-02-03T14:10:50.986Z,78.94
2019-02-03T14:13:17.822Z,80.41
2019-02-03T14:15:44.691Z,80.54
2019-02-03T14:18:11.520Z,78.73
2019-02-03T14:20:38.421Z,79.81
2019-02-03T14:23:05.218Z,79.85
2019-02-03T14:25:32.058Z,79.21
2019-02-03T14:27:58.891Z,76.17
2019-02-03T14:30:39.201Z,79.98
2019-02-03T14:32:55.061Z,79.10
2019-02-03T14:35:21.955Z,76.57
2019-02-03T14:37:48.786Z,78.52
2019-02-03T14:40:15.984Z,78.37
2019-02-03T14:42:48.049Z,76.94
2019-02-03T14:45:11.403Z,79.24
2019-02-03T14:47:38.247Z,79.92
2019-02-03T14:50:06.639Z,80.50
2019-02-03T14:52:33.463Z,78.88
2019-02-03T14:55:00.332Z,79.26
2019-02-03T14:57:27.170Z,79.87
2019-02-03T14:59:54.031Z,81.39
2019-02-03T15:02:20.871Z,81.17
2019-02-03T15:04:47.730Z,81.23
2019-02-03T15:07:14.715Z,78.81
2019-02-03T15:09:41.574Z,79.22
2019-02-03T15:12:08.408Z,78.55
2019-02-03T15:14:35.253Z,77.72
2019-02-03T15:17:02.091Z,79.64
2019-02-03T15:19:28.926Z,80.04
2019-02-03T15:21:55.774Z,80.02
2019-02-03T15:24:22.615Z,80.99
2019-02-03T15:26:49.479Z,80.96
2019-02-03T15:29:16.326Z,77.95
2019-02-03T15:31:43.206Z,80.03
2019-02-03T15:34:11.686Z,77.54
2019-02-03T15:36:36.866Z,79.15
2019-02-03T15:39:06.522Z,79.73
2019-02-03T15:41:33.386Z,80.64
2019-02-03T15:44:00.214Z,79.53
2019-02-03T15:46:27.066Z,81.03
2019-02-03T15:48:53.892Z,81.14
2019-02-03T15:51:20.739Z,80.32
2019-02-03T15:53:47.574Z,80.96
2019-02-03T15:56:14.522Z,79.21
2019-02-03T15:58:41.352Z,79.58
2019-02-03T16:01:08.208Z,79.89
2019-02-03T16:03:35.045Z,80.35
2019-02-03T16:06:01.902Z,80.01
2019-02-03T16:08:28.739Z,79.95
2019-02-03T16:10:55.606Z,79.13
2019-02-03T16:13:22.520Z,80.25
2019-02-03T16:15:49.311Z,79.83
2019-02-03T16:18:16.175Z,80.52
2019-02-03T16:20:43.045Z,80.63
2019-02-03T16:23:09.898Z,79.42
2019-02-03T16:25:36.747Z,80.81
2019-02-03T16:28:04.197Z,81.19
2019-02-03T16:30:32.544Z,80.75
2019-02-03T16:32:59.379Z,80.82
2019-02-03T16:35:26.271Z,81.33
2019-02-03T16:37:53.200Z,82.00
2019-02-03T16:40:21.893Z,81.51
2019-02-03T16:42:48.811Z,81.80
2019-02-03T16:45:15.710Z,80.45
2019-02-03T16:47:42.616Z,80.81
2019-02-03T16:50:13.086Z,81.05
2019-02-03T16:52:39.893Z,80.16
2019-02-03T16:55:07.859Z,80.50
2019-02-03T16:57:34.798Z,80.68
2019-02-03T17:00:01.652Z,81.64
2019-02-03T17:02:28.485Z,81.93
2019-02-03T17:04:55.322Z,81.77
2019-02-03T17:07:22.174Z,80.63
2019-02-03T17:09:49.154Z,80.96
2019-02-03T17:12:16.019Z,81.59
2019-02-03T17:14:42.851Z,79.13
2019-02-03T17:17:09.750Z,80.91
2019-02-03T17:19:36.600Z,82.72
2019-02-03T17:22:03.455Z,82.78
2019-02-03T17:24:30.339Z,82.23
2019-02-03T17:26:57.208Z,81.52
2019-02-03T17:29:24.045Z,82.04
2019-02-03T17:31:50.970Z,82.54
2019-02-03T17:34:17.923Z,83.19
2019-02-03T17:36:44.787Z,82.52
2019-02-03T17:39:11.637Z,82.25
2019-02-03T17:41:38.574Z,82.40
2019-02-03T17:44:14.814Z,82.10
2019-02-03T17:46:32.680Z,81.92
2019-02-03T17:48:59.555Z,82.34
2019-02-03T17:51:26.421Z,82.21
2019-02-03T17:53:53.344Z,81.62
2019-02-03T17:56:20.210Z,79.79
2019-02-03T17:58:47.058Z,79.71
2019-02-03T18:01:14.730Z,79.77
2019-02-03T18:03:41.586Z,79.64
2019-02-03T18:06:08.430Z,78.34
2019-02-03T18:08:35.299Z,79.26
2019-02-03T18:11:02.134Z,78.31
2019-02-03T18:13:28.981Z,77.22
2019-02-03T18:15:55.877Z,76.76
2019-02-03T18:18:22.835Z,78.58
2019-02-03T18:20:49.825Z,78.87
2019-02-03T18:23:16.776Z,78.96
2019-02-03T18:25:43.625Z,78.67
2019-02-03T18:28:10.495Z,79.00
2019-02-03T18:30:37.538Z,79.48
2019-02-03T18:33:05.197Z,80.66
2019-02-03T18:35:32.081Z,81.57
2019-02-03T18:37:59.023Z,81.23
2019-02-03T18:40:25.863Z,80.81
2019-02-03T18:42:52.749Z,80.54
2019-02-03T18:45:19.767Z,79.96
2019-02-03T18:47:46.687Z,80.38
2019-02-03T18:50:15.690Z,80.47
2019-02-03T18:52:42.551Z,79.92
2019-02-03T18:55:11.850Z,79.92
2019-02-03T18:57:38.710Z,78.02
2019-02-03T19:00:10.260Z,79.23
2019-02-03T19:02:37.177Z,80.36
2019-02-03T19:05:05.798Z,80.94
2019-02-03T19:07:32.729Z,80.62
2019-02-03T19:09:59.586Z,80.85
2019-02-03T19:12:26.537Z,81.41
2019-02-03T19:14:53.369Z,81.18
2019-02-03T19:17:20.242Z,81.01
2019-02-03T19:19:47.098Z,81.24
2019-02-03T19:22:14.036Z,81.63
2019-02-03T19:24:40.994Z,81.53
2019-02-03T19:27:07.834Z,81.14
2019-02-03T19:29:34.729Z,80.68
2019-02-03T19:32:01.686Z,81.12
2019-02-03T19:34:28.579Z,81.33
2019-02-03T19:37:05.187Z,81.99
2019-02-03T19:39:22.291Z,82.39
2019-02-03T19:41:49.150Z,82.59
2019-02-03T19:44:16.010Z,81.81
2019-02-03T19:46:45.058Z,82.13
2019-02-03T19:49:11.911Z,82.46
2019-02-03T19:51:39.258Z,81.95
2019-02-03T19:54:06.137Z,81.40
2019-02-03T19:56:32.979Z,81.48
2019-02-03T19:58:59.950Z,81.89
2019-02-03T20:01:26.819Z,82.42
2019-02-03T20:03:58.035Z,82.46
2019-02-03T20:06:24.949Z,82.19
2019-02-03T20:08:51.794Z,82.17
2019-02-03T20:11:18.649Z,81.04
2019-02-03T20:13:45.524Z,82.65
2019-02-03T20:16:12.362Z,82.65
2019-02-03T20:18:39.220Z,82.77
2019-02-03T20:21:06.486Z,82.27
2019-02-03T20:23:33.325Z,80.75
2019-02-03T20:26:00.163Z,81.06
2019-02-03T20:28:27.102Z,81.70
2019-02-03T20:30:54.290Z,80.50
2019-02-03T20:33:21.479Z,80.42
2019-02-03T20:35:48.314Z,81.03
2019-02-03T20:38:15.174Z,81.08
2019-02-03T20:40:42.454Z,81.02
2019-02-03T20:43:09.306Z,81.24
2019-02-03T20:45:37.968Z,81.08
2019-02-03T20:48:03.090Z,81.06
2019-02-03T20:50:29.927Z,81.32
2019-02-03T20:52:56.758Z,80.88
2019-02-03T20:55:23.650Z,81.02
2019-02-03T20:57:50.507Z,80.83
2019-02-03T21:00:22.006Z,80.65
2019-02-03T21:02:48.903Z,80.26
2019-02-03T21:05:15.750Z,79.95
2019-02-03T21:07:42.590Z,80.31
2019-02-03T21:10:11.139Z,80.88
2019-02-03T21:12:38.014Z,80.82
2019-02-03T21:15:05.930Z,81.04
2019-02-03T21:17:32.757Z,80.77
2019-02-03T21:19:59.599Z,79.37
2019-02-03T21:22:26.518Z,78.47
2019-02-03T21:24:53.371Z,78.66
2019-02-03T21:27:20.202Z,77.12
2019-02-03T21:29:47.095Z,78.08
2019-02-03T21:32:13.906Z,78.36
2019-02-03T21:34:40.786Z,77.16
2019-02-03T21:37:07.638Z,76.59
2019-02-03T21:39:34.527Z,77.33
2019-02-03T21:42:01.370Z,77.71
2019-02-03T21:44:28.221Z,77.23
2019-02-03T21:46:55.062Z,77.31
2019-02-03T21:49:21.926Z,78.01
2019-02-03T21:51:48.814Z,78.83
2019-02-03T21:54:15.661Z,79.98
2019-02-03T21:56:42.490Z,80.88
2019-02-03T21:59:09.355Z,81.23
2019-02-03T22:01:36.175Z,80.79
2019-02-03T22:04:03.014Z,81.12
2019-02-03T22:06:29.871Z,80.75
2019-02-03T22:08:56.694Z,80.10
2019-02-03T22:11:23.551Z,80.53
2019-02-03T22:13:50.383Z,81.97
2019-02-03T22:16:17.230Z,81.85
2019-02-03T22:18:44.060Z,81.87
2019-02-03T22:21:10.915Z,82.68
2019-02-03T22:23:37.738Z,82.56
2019-02-03T22:26:04.594Z,82.92
2019-02-03T22:28:31.439Z,83.56
2019-02-03T22:30:58.329Z,82.44
2019-02-03T22:33:25.154Z,83.70
2019-02-03T22:35:51.989Z,83.34
2019-02-03T22:38:18.822Z,83.82
2019-02-03T22:40:45.726Z,83.22
2019-02-03T22:43:12.550Z,83.31
2019-02-03T22:45:39.398Z,83.53
2019-02-03T22:48:06.529Z,83.39
2019-02-03T22:50:33.387Z,82.94
2019-02-03T22:53:00.214Z,83.59
2019-02-03T22:55:27.079Z,83.11
2019-02-03T22:57:53.930Z,82.52
2019-02-03T23:00:44.582Z,82.39
2019-02-03T23:03:11.417Z,81.25
2019-02-03T23:05:38.397Z,81.50
2019-02-03T23:08:05.102Z,80.79
2019-02-03T23:10:32.089Z,80.29
2019-02-03T23:12:58.929Z,79.83
2019-02-03T23:15:25.841Z,79.10
2019-02-03T23:17:52.706Z,79.73
2019-02-03T23:20:19.538Z,80.12
2019-02-03T23:22:46.394Z,80.64
2019-02-03T23:25:13.222Z,80.08
2019-02-03T23:27:40.183Z,80.31
2019-02-03T23:30:10.338Z,80.13
2019-02-03T23:32:37.183Z,80.02
2019-02-03T23:35:04.090Z,80.10
2019-02-03T23:37:30.938Z,80.33
2019-02-03T23:39:57.839Z,80.35
2019-02-03T23:42:24.681Z,80.28
2019-02-03T23:44:51.509Z,80.36
2019-02-03T23:47:18.361Z,80.57
2019-02-03T23:49:45.194Z,81.02
2019-02-03T23:52:12.050Z,81.26
2019-02-03T23:54:38.881Z,81.73
2019-02-03T23:57:05.745Z,81.36
2019-02-03T23:59:32.582Z,81.48
